Myrtle, West Virginia
Current Conditions -  °F | °C
As of 2:35 AM on Sunday 23 Nov 2014 (Local Time) from KPBX Reporting Station
Overcast Overcast  
Wind Chill: 51°   Ceiling: 10000
Heat Index: 51°   Visibility: 10mi
Dew Point: 28°   Wind: 7mph
Humidity: 42%   Direction: 150°SSE
Pressure: 30.12"   Gusts: NA
Location:  37.7051°N, 82.1101°W
Report Text: KPBX 230735Z AUTO 15006KT 10SM OVC100 10/M02 A3012 RMK AO2 T01041020
Loading
Personal Weather Stations






























Interactive Weather Map New forecast layout! Learn more

10-Day Weather Forecast

Advertisements
Track Severe Weather on mobile